Terminal Aerodrome Forecast
Issued by NWS

Home | Current Version | Previous Version | Text Only | Print | Product List | Glossary On
Versions: 1 2 3 4 5 6 7 8 9 10 11 12 13
000
FTAK31 PAFA 282322
TAFAOT
TAF
PAOT 282322Z 2900/2924 28005KT P6SM FEW035 BKN250
     FM291000 32011KT P6SM BKN250
     FM291800 33008KT P6SM FEW035 BKN250=

USA.gov is the U.S. government's official web portal to all federal, state and local government web resources and services.